Morrisville, North Carolina
Current Conditions -  °F | °C
As of 1:51 AM on Friday 19 Dec 2014 (Local Time) from KRDU Reporting Station
Broken Clouds Broken Clouds  
Wind Chill: 39°   Ceiling: 7000
Heat Index: 39°   Visibility: 10mi
Dew Point: 31°   Wind: 0mph
Humidity: 73%   Direction: NA
Pressure: 30.1"   Gusts: NA
Location:  35.82°N, 78.83°W
Report Text: KRDU 190651Z 00000KT 10SM BKN070 04/M01 A3010 RMK AO2 SLP195 T00391006
Loading
Personal Weather Stations






























Interactive Weather Map New forecast layout! Learn more

10-Day Weather Forecast

Advertisements
Track Severe Weather on mobile